sensor_id;sensor_type;location;lat;lon;timestamp;temperature;humidity
47861;HTU21D;33620;52.340;5.984;2024-01-06T00:00:13;5.28;95.39
47861;HTU21D;33620;52.340;5.984;2024-01-06T00:02:38;5.28;95.52
47861;HTU21D;33620;52.340;5.984;2024-01-06T00:05:04;5.34;95.67
47861;HTU21D;33620;52.340;5.984;2024-01-06T00:07:30;5.38;95.75
47861;HTU21D;33620;52.340;5.984;2024-01-06T00:09:55;5.41;95.66
47861;HTU21D;33620;52.340;5.984;2024-01-06T00:12:21;5.42;95.63
47861;HTU21D;33620;52.340;5.984;2024-01-06T00:14:46;5.43;95.55
47861;HTU21D;33620;52.340;5.984;2024-01-06T00:17:11;5.45;95.35
47861;HTU21D;33620;52.340;5.984;2024-01-06T00:19:37;5.38;95.36
47861;HTU21D;33620;52.340;5.984;2024-01-06T00:22:02;5.33;95.41
47861;HTU21D;33620;52.340;5.984;2024-01-06T00:24:28;5.33;95.68
47861;HTU21D;33620;52.340;5.984;2024-01-06T00:26:53;5.32;95.59
47861;HTU21D;33620;52.340;5.984;2024-01-06T00:29:18;5.27;95.50
47861;HTU21D;33620;52.340;5.984;2024-01-06T00:31:44;5.23;95.30
47861;HTU21D;33620;52.340;5.984;2024-01-06T00:34:09;5.22;95.41
47861;HTU21D;33620;52.340;5.984;2024-01-06T00:36:34;5.21;95.60
47861;HTU21D;33620;52.340;5.984;2024-01-06T00:39:00;5.23;95.46
47861;HTU21D;33620;52.340;5.984;2024-01-06T00:41:25;5.10;95.33
47861;HTU21D;33620;52.340;5.984;2024-01-06T00:43:51;5.04;95.35
47861;HTU21D;33620;52.340;5.984;2024-01-06T00:46:16;5.00;95.43
47861;HTU21D;33620;52.340;5.984;2024-01-06T00:48:42;4.97;95.43
47861;HTU21D;33620;52.340;5.984;2024-01-06T00:51:07;4.94;95.37
47861;HTU21D;33620;52.340;5.984;2024-01-06T00:53:33;4.95;95.62
47861;HTU21D;33620;52.340;5.984;2024-01-06T00:55:58;4.95;95.65
47861;HTU21D;33620;52.340;5.984;2024-01-06T00:58:23;4.90;95.08
47861;HTU21D;33620;52.340;5.984;2024-01-06T01:00:49;4.91;95.53
47861;HTU21D;33620;52.340;5.984;2024-01-06T01:03:15;4.91;95.57
47861;HTU21D;33620;52.340;5.984;2024-01-06T01:05:40;4.88;95.28
47861;HTU21D;33620;52.340;5.984;2024-01-06T01:08:06;4.87;95.19
47861;HTU21D;33620;52.340;5.984;2024-01-06T01:10:31;4.82;95.38
47861;HTU21D;33620;52.340;5.984;2024-01-06T01:12:56;4.69;95.20
47861;HTU21D;33620;52.340;5.984;2024-01-06T01:15:22;4.69;95.66
47861;HTU21D;33620;52.340;5.984;2024-01-06T01:17:47;4.67;95.73
47861;HTU21D;33620;52.340;5.984;2024-01-06T01:20:12;4.74;95.94
47861;HTU21D;33620;52.340;5.984;2024-01-06T01:22:38;4.72;95.55
47861;HTU21D;33620;52.340;5.984;2024-01-06T01:25:03;4.72;95.41
47861;HTU21D;33620;52.340;5.984;2024-01-06T01:27:33;4.66;95.10
47861;HTU21D;33620;52.340;5.984;2024-01-06T01:29:58;4.65;95.39
47861;HTU21D;33620;52.340;5.984;2024-01-06T01:32:24;4.60;95.42
47861;HTU21D;33620;52.340;5.984;2024-01-06T01:34:49;4.61;95.52
47861;HTU21D;33620;52.340;5.984;2024-01-06T01:37:15;4.59;95.52
47861;HTU21D;33620;52.340;5.984;2024-01-06T01:39:40;4.62;95.77
47861;HTU21D;33620;52.340;5.984;2024-01-06T01:42:06;4.62;95.71
47861;HTU21D;33620;52.340;5.984;2024-01-06T01:44:31;4.69;95.99
47861;HTU21D;33620;52.340;5.984;2024-01-06T01:46:57;4.63;95.62
47861;HTU21D;33620;52.340;5.984;2024-01-06T01:49:22;4.65;95.77
47861;HTU21D;33620;52.340;5.984;2024-01-06T01:51:49;4.64;95.84
47861;HTU21D;33620;52.340;5.984;2024-01-06T01:54:14;4.62;95.47
47861;HTU21D;33620;52.340;5.984;2024-01-06T01:56:41;4.66;95.89
47861;HTU21D;33620;52.340;5.984;2024-01-06T01:59:14;4.69;95.94
47861;HTU21D;33620;52.340;5.984;2024-01-06T02:01:42;4.65;95.80
47861;HTU21D;33620;52.340;5.984;2024-01-06T02:04:08;4.57;95.49
47861;HTU21D;33620;52.340;5.984;2024-01-06T02:06:34;4.56;95.62
47861;HTU21D;33620;52.340;5.984;2024-01-06T02:08:59;4.51;95.78
47861;HTU21D;33620;52.340;5.984;2024-01-06T02:11:24;4.57;96.04
47861;HTU21D;33620;52.340;5.984;2024-01-06T02:13:50;4.54;95.64
47861;HTU21D;33620;52.340;5.984;2024-01-06T02:16:15;4.51;95.73
47861;HTU21D;33620;52.340;5.984;2024-01-06T02:18:41;4.58;95.99
47861;HTU21D;33620;52.340;5.984;2024-01-06T02:21:06;4.57;95.87
47861;HTU21D;33620;52.340;5.984;2024-01-06T02:23:35;4.56;95.67
47861;HTU21D;33620;52.340;5.984;2024-01-06T02:26:00;4.48;95.30
47861;HTU21D;33620;52.340;5.984;2024-01-06T02:28:25;4.50;95.70
47861;HTU21D;33620;52.340;5.984;2024-01-06T02:30:51;4.52;95.84
47861;HTU21D;33620;52.340;5.984;2024-01-06T02:33:16;4.48;95.35
47861;HTU21D;33620;52.340;5.984;2024-01-06T02:35:45;4.36;95.20
47861;HTU21D;33620;52.340;5.984;2024-01-06T02:38:10;4.36;95.36
47861;HTU21D;33620;52.340;5.984;2024-01-06T02:40:36;4.32;95.31
47861;HTU21D;33620;52.340;5.984;2024-01-06T02:43:01;4.23;95.28
47861;HTU21D;33620;52.340;5.984;2024-01-06T02:45:26;4.16;95.18
47861;HTU21D;33620;52.340;5.984;2024-01-06T02:47:51;4.22;95.69
47861;HTU21D;33620;52.340;5.984;2024-01-06T02:50:17;4.24;95.51
47861;HTU21D;33620;52.340;5.984;2024-01-06T02:52:44;4.31;95.76
47861;HTU21D;33620;52.340;5.984;2024-01-06T02:55:10;4.32;95.51
47861;HTU21D;33620;52.340;5.984;2024-01-06T02:57:36;4.22;94.94
47861;HTU21D;33620;52.340;5.984;2024-01-06T03:00:01;4.17;95.07
47861;HTU21D;33620;52.340;5.984;2024-01-06T03:02:27;4.06;94.90
47861;HTU21D;33620;52.340;5.984;2024-01-06T03:04:52;4.09;95.30
47861;HTU21D;33620;52.340;5.984;2024-01-06T03:07:17;4.14;95.55
47861;HTU21D;33620;52.340;5.984;2024-01-06T03:09:43;4.21;95.63
47861;HTU21D;33620;52.340;5.984;2024-01-06T03:12:08;4.18;95.20
47861;HTU21D;33620;52.340;5.984;2024-01-06T03:14:35;4.16;95.25
47861;HTU21D;33620;52.340;5.984;2024-01-06T03:17:00;4.16;95.04
47861;HTU21D;33620;52.340;5.984;2024-01-06T03:19:25;4.14;95.17
47861;HTU21D;33620;52.340;5.984;2024-01-06T03:21:53;4.06;94.76
47861;HTU21D;33620;52.340;5.984;2024-01-06T03:24:18;4.04;94.52
47861;HTU21D;33620;52.340;5.984;2024-01-06T03:26:44;4.03;94.70
47861;HTU21D;33620;52.340;5.984;2024-01-06T03:29:09;4.04;94.98
47861;HTU21D;33620;52.340;5.984;2024-01-06T03:31:34;4.05;94.89
47861;HTU21D;33620;52.340;5.984;2024-01-06T03:34:00;4.01;94.80
47861;HTU21D;33620;52.340;5.984;2024-01-06T03:36:25;4.05;94.79
47861;HTU21D;33620;52.340;5.984;2024-01-06T03:38:50;4.05;94.62
47861;HTU21D;33620;52.340;5.984;2024-01-06T03:41:16;4.03;94.21
47861;HTU21D;33620;52.340;5.984;2024-01-06T03:43:41;4.05;94.65
47861;HTU21D;33620;52.340;5.984;2024-01-06T03:46:07;4.08;94.70
47861;HTU21D;33620;52.340;5.984;2024-01-06T03:48:32;4.10;94.71
47861;HTU21D;33620;52.340;5.984;2024-01-06T03:50:59;4.16;94.78
47861;HTU21D;33620;52.340;5.984;2024-01-06T03:53:24;4.16;94.48
47861;HTU21D;33620;52.340;5.984;2024-01-06T03:55:50;4.12;94.13
47861;HTU21D;33620;52.340;5.984;2024-01-06T03:58:15;4.07;94.19
47861;HTU21D;33620;52.340;5.984;2024-01-06T04:00:40;4.08;94.41
47861;HTU21D;33620;52.340;5.984;2024-01-06T04:03:06;4.08;94.27
47861;HTU21D;33620;52.340;5.984;2024-01-06T04:05:32;4.04;94.03
47861;HTU21D;33620;52.340;5.984;2024-01-06T04:07:57;4.00;94.17
47861;HTU21D;33620;52.340;5.984;2024-01-06T04:10:22;3.94;93.91
47861;HTU21D;33620;52.340;5.984;2024-01-06T04:12:48;3.98;94.44
47861;HTU21D;33620;52.340;5.984;2024-01-06T04:15:13;3.94;94.11
47861;HTU21D;33620;52.340;5.984;2024-01-06T04:17:38;3.91;94.30
47861;HTU21D;33620;52.340;5.984;2024-01-06T04:20:04;3.99;94.80
47861;HTU21D;33620;52.340;5.984;2024-01-06T04:22:30;3.89;94.03
47861;HTU21D;33620;52.340;5.984;2024-01-06T04:24:55;3.91;94.37
47861;HTU21D;33620;52.340;5.984;2024-01-06T04:27:21;3.95;94.59
47861;HTU21D;33620;52.340;5.984;2024-01-06T04:29:46;3.98;94.46
47861;HTU21D;33620;52.340;5.984;2024-01-06T04:32:12;4.00;94.68
47861;HTU21D;33620;52.340;5.984;2024-01-06T04:34:37;4.06;94.94
47861;HTU21D;33620;52.340;5.984;2024-01-06T04:37:02;4.13;94.74
47861;HTU21D;33620;52.340;5.984;2024-01-06T04:39:28;4.10;94.46
47861;HTU21D;33620;52.340;5.984;2024-01-06T04:41:53;4.06;94.37
47861;HTU21D;33620;52.340;5.984;2024-01-06T04:44:20;3.98;94.36
47861;HTU21D;33620;52.340;5.984;2024-01-06T04:46:46;3.97;94.63
47861;HTU21D;33620;52.340;5.984;2024-01-06T04:49:11;3.86;94.45
47861;HTU21D;33620;52.340;5.984;2024-01-06T04:51:37;3.83;94.83
47861;HTU21D;33620;52.340;5.984;2024-01-06T04:54:02;3.83;95.02
47861;HTU21D;33620;52.340;5.984;2024-01-06T04:56:28;3.83;95.11
47861;HTU21D;33620;52.340;5.984;2024-01-06T04:58:53;3.82;94.95
47861;HTU21D;33620;52.340;5.984;2024-01-06T05:01:18;3.78;94.88
47861;HTU21D;33620;52.340;5.984;2024-01-06T05:03:44;3.77;94.72
47861;HTU21D;33620;52.340;5.984;2024-01-06T05:06:09;3.76;94.87
47861;HTU21D;33620;52.340;5.984;2024-01-06T05:08:35;3.71;94.87
47861;HTU21D;33620;52.340;5.984;2024-01-06T05:11:04;3.74;95.14
47861;HTU21D;33620;52.340;5.984;2024-01-06T05:13:30;3.80;95.42
47861;HTU21D;33620;52.340;5.984;2024-01-06T05:15:55;3.83;95.04
47861;HTU21D;33620;52.340;5.984;2024-01-06T05:18:21;3.83;94.76
47861;HTU21D;33620;52.340;5.984;2024-01-06T05:20:46;3.85;94.79
47861;HTU21D;33620;52.340;5.984;2024-01-06T05:23:12;3.79;94.79
47861;HTU21D;33620;52.340;5.984;2024-01-06T05:25:37;3.80;94.85
47861;HTU21D;33620;52.340;5.984;2024-01-06T05:28:02;3.72;94.56
47861;HTU21D;33620;52.340;5.984;2024-01-06T05:30:28;3.68;94.52
47861;HTU21D;33620;52.340;5.984;2024-01-06T05:32:53;3.63;94.69
47861;HTU21D;33620;52.340;5.984;2024-01-06T05:35:19;3.56;94.98
47861;HTU21D;33620;52.340;5.984;2024-01-06T05:37:44;3.61;95.02
47861;HTU21D;33620;52.340;5.984;2024-01-06T05:40:10;3.63;95.34
47861;HTU21D;33620;52.340;5.984;2024-01-06T05:42:36;3.62;94.98
47861;HTU21D;33620;52.340;5.984;2024-01-06T05:45:02;3.58;94.65
47861;HTU21D;33620;52.340;5.984;2024-01-06T05:47:27;3.59;94.56
47861;HTU21D;33620;52.340;5.984;2024-01-06T05:49:53;3.61;94.63
47861;HTU21D;33620;52.340;5.984;2024-01-06T05:52:18;3.57;94.27
47861;HTU21D;33620;52.340;5.984;2024-01-06T05:54:44;3.52;94.23
47861;HTU21D;33620;52.340;5.984;2024-01-06T05:57:09;3.49;94.45
47861;HTU21D;33620;52.340;5.984;2024-01-06T05:59:34;3.50;94.49
47861;HTU21D;33620;52.340;5.984;2024-01-06T06:02:00;3.43;94.65
47861;HTU21D;33620;52.340;5.984;2024-01-06T06:04:25;3.35;94.44
47861;HTU21D;33620;52.340;5.984;2024-01-06T06:06:51;3.41;94.71
47861;HTU21D;33620;52.340;5.984;2024-01-06T06:09:16;3.45;94.83
47861;HTU21D;33620;52.340;5.984;2024-01-06T06:11:42;3.45;94.70
47861;HTU21D;33620;52.340;5.984;2024-01-06T06:14:08;3.49;95.07
47861;HTU21D;33620;52.340;5.984;2024-01-06T06:16:34;3.57;95.20
47861;HTU21D;33620;52.340;5.984;2024-01-06T06:18:59;3.57;94.66
47861;HTU21D;33620;52.340;5.984;2024-01-06T06:21:24;3.57;94.65
47861;HTU21D;33620;52.340;5.984;2024-01-06T06:23:50;3.52;94.21
47861;HTU21D;33620;52.340;5.984;2024-01-06T06:26:15;3.49;94.33
47861;HTU21D;33620;52.340;5.984;2024-01-06T06:28:41;3.47;93.99
47861;HTU21D;33620;52.340;5.984;2024-01-06T06:31:06;3.45;94.17
47861;HTU21D;33620;52.340;5.984;2024-01-06T06:33:32;3.42;94.04
47861;HTU21D;33620;52.340;5.984;2024-01-06T06:35:58;3.39;94.24
47861;HTU21D;33620;52.340;5.984;2024-01-06T06:38:25;3.35;94.13
47861;HTU21D;33620;52.340;5.984;2024-01-06T06:40:51;3.31;93.72
47861;HTU21D;33620;52.340;5.984;2024-01-06T06:43:16;3.32;93.86
47861;HTU21D;33620;52.340;5.984;2024-01-06T06:45:41;3.33;94.02
47861;HTU21D;33620;52.340;5.984;2024-01-06T06:48:07;3.39;94.10
47861;HTU21D;33620;52.340;5.984;2024-01-06T06:50:32;3.44;94.01
47861;HTU21D;33620;52.340;5.984;2024-01-06T06:52:59;3.39;93.92
47861;HTU21D;33620;52.340;5.984;2024-01-06T06:55:24;3.38;93.65
47861;HTU21D;33620;52.340;5.984;2024-01-06T06:57:49;3.38;93.50
47861;HTU21D;33620;52.340;5.984;2024-01-06T07:00:15;3.32;93.54
47861;HTU21D;33620;52.340;5.984;2024-01-06T07:02:42;3.41;93.84
47861;HTU21D;33620;52.340;5.984;2024-01-06T07:05:07;3.33;93.56
47861;HTU21D;33620;52.340;5.984;2024-01-06T07:07:33;3.39;93.88
47861;HTU21D;33620;52.340;5.984;2024-01-06T07:10:01;3.35;93.50
47861;HTU21D;33620;52.340;5.984;2024-01-06T07:12:26;3.36;94.02
47861;HTU21D;33620;52.340;5.984;2024-01-06T07:14:52;3.34;93.71
47861;HTU21D;33620;52.340;5.984;2024-01-06T07:17:18;3.34;93.86
47861;HTU21D;33620;52.340;5.984;2024-01-06T07:19:43;3.29;94.17
47861;HTU21D;33620;52.340;5.984;2024-01-06T07:22:08;3.21;93.75
47861;HTU21D;33620;52.340;5.984;2024-01-06T07:24:34;3.21;94.31
47861;HTU21D;33620;52.340;5.984;2024-01-06T07:27:01;3.16;94.07
47861;HTU21D;33620;52.340;5.984;2024-01-06T07:29:27;3.12;94.47
47861;HTU21D;33620;52.340;5.984;2024-01-06T07:31:52;3.12;94.27
47861;HTU21D;33620;52.340;5.984;2024-01-06T07:34:17;3.13;94.40
47861;HTU21D;33620;52.340;5.984;2024-01-06T07:36:43;3.15;94.73
47861;HTU21D;33620;52.340;5.984;2024-01-06T07:39:08;3.23;95.01
47861;HTU21D;33620;52.340;5.984;2024-01-06T07:41:34;3.23;94.86
47861;HTU21D;33620;52.340;5.984;2024-01-06T07:43:59;3.29;94.87
47861;HTU21D;33620;52.340;5.984;2024-01-06T07:46:27;3.33;94.57
47861;HTU21D;33620;52.340;5.984;2024-01-06T07:48:53;3.30;94.38
47861;HTU21D;33620;52.340;5.984;2024-01-06T07:51:18;3.23;94.32
47861;HTU21D;33620;52.340;5.984;2024-01-06T07:53:43;3.14;94.52
47861;HTU21D;33620;52.340;5.984;2024-01-06T07:56:09;3.08;94.49
47861;HTU21D;33620;52.340;5.984;2024-01-06T07:58:34;3.00;94.70
47861;HTU21D;33620;52.340;5.984;2024-01-06T08:01:00;2.97;94.81
47861;HTU21D;33620;52.340;5.984;2024-01-06T08:03:25;2.98;94.99
47861;HTU21D;33620;52.340;5.984;2024-01-06T08:05:50;3.03;95.30
47861;HTU21D;33620;52.340;5.984;2024-01-06T08:08:16;3.06;95.24
47861;HTU21D;33620;52.340;5.984;2024-01-06T08:10:42;3.08;95.04
47861;HTU21D;33620;52.340;5.984;2024-01-06T08:13:08;3.11;95.07
47861;HTU21D;33620;52.340;5.984;2024-01-06T08:15:33;3.08;94.76
47861;HTU21D;33620;52.340;5.984;2024-01-06T08:17:59;3.11;94.68
47861;HTU21D;33620;52.340;5.984;2024-01-06T08:20:24;3.16;94.69
47861;HTU21D;33620;52.340;5.984;2024-01-06T08:22:49;3.13;94.52
47861;HTU21D;33620;52.340;5.984;2024-01-06T08:25:15;3.19;94.82
47861;HTU21D;33620;52.340;5.984;2024-01-06T08:27:43;3.21;94.88
47861;HTU21D;33620;52.340;5.984;2024-01-06T08:30:08;3.26;94.64
47861;HTU21D;33620;52.340;5.984;2024-01-06T08:32:33;3.20;94.08
47861;HTU21D;33620;52.340;5.984;2024-01-06T08:34:59;3.17;94.08
47861;HTU21D;33620;52.340;5.984;2024-01-06T08:37:24;3.16;94.16
47861;HTU21D;33620;52.340;5.984;2024-01-06T08:39:50;3.13;93.98
47861;HTU21D;33620;52.340;5.984;2024-01-06T08:42:15;3.10;93.91
47861;HTU21D;33620;52.340;5.984;2024-01-06T08:44:40;3.17;94.14
47861;HTU21D;33620;52.340;5.984;2024-01-06T08:47:06;3.01;93.37
47861;HTU21D;33620;52.340;5.984;2024-01-06T08:49:31;2.99;93.82
47861;HTU21D;33620;52.340;5.984;2024-01-06T08:51:58;2.97;93.95
47861;HTU21D;33620;52.340;5.984;2024-01-06T08:54:23;2.94;94.11
47861;HTU21D;33620;52.340;5.984;2024-01-06T08:56:48;2.99;94.39
47861;HTU21D;33620;52.340;5.984;2024-01-06T08:59:14;3.04;94.43
47861;HTU21D;33620;52.340;5.984;2024-01-06T09:01:39;2.98;94.07
47861;HTU21D;33620;52.340;5.984;2024-01-06T09:04:04;2.98;94.07
47861;HTU21D;33620;52.340;5.984;2024-01-06T09:06:31;2.99;94.05
47861;HTU21D;33620;52.340;5.984;2024-01-06T09:08:57;3.08;94.41
47861;HTU21D;33620;52.340;5.984;2024-01-06T09:11:22;3.11;94.21
47861;HTU21D;33620;52.340;5.984;2024-01-06T09:13:48;3.15;94.24
47861;HTU21D;33620;52.340;5.984;2024-01-06T09:16:13;3.19;94.17
47861;HTU21D;33620;52.340;5.984;2024-01-06T09:18:39;3.20;93.62
47861;HTU21D;33620;52.340;5.984;2024-01-06T09:21:05;3.21;93.75
47861;HTU21D;33620;52.340;5.984;2024-01-06T09:23:30;3.27;93.81
47861;HTU21D;33620;52.340;5.984;2024-01-06T09:25:57;3.35;94.00
47861;HTU21D;33620;52.340;5.984;2024-01-06T09:28:23;3.41;93.75
47861;HTU21D;33620;52.340;5.984;2024-01-06T09:30:48;3.47;93.59
47861;HTU21D;33620;52.340;5.984;2024-01-06T09:33:14;3.46;93.02
47861;HTU21D;33620;52.340;5.984;2024-01-06T09:35:41;3.49;93.21
47861;HTU21D;33620;52.340;5.984;2024-01-06T09:38:08;3.53;92.95
47861;HTU21D;33620;52.340;5.984;2024-01-06T09:40:35;3.53;92.75
47861;HTU21D;33620;52.340;5.984;2024-01-06T09:43:00;3.49;92.10
47861;HTU21D;33620;52.340;5.984;2024-01-06T09:45:28;3.47;92.01
47861;HTU21D;33620;52.340;5.984;2024-01-06T09:47:54;3.47;91.82
47861;HTU21D;33620;52.340;5.984;2024-01-06T09:50:21;3.46;91.79
47861;HTU21D;33620;52.340;5.984;2024-01-06T09:52:48;3.43;91.60
47861;HTU21D;33620;52.340;5.984;2024-01-06T09:55:23;3.47;91.62
47861;HTU21D;33620;52.340;5.984;2024-01-06T09:57:50;3.46;91.56
47861;HTU21D;33620;52.340;5.984;2024-01-06T10:00:17;3.50;91.67
47861;HTU21D;33620;52.340;5.984;2024-01-06T10:02:43;3.45;91.24
47861;HTU21D;33620;52.340;5.984;2024-01-06T10:05:08;3.45;91.72
47861;HTU21D;33620;52.340;5.984;2024-01-06T10:07:35;3.44;91.58
47861;HTU21D;33620;52.340;5.984;2024-01-06T10:10:00;3.44;91.48
47861;HTU21D;33620;52.340;5.984;2024-01-06T10:12:26;3.50;91.79
47861;HTU21D;33620;52.340;5.984;2024-01-06T10:14:52;3.54;91.31
47861;HTU21D;33620;52.340;5.984;2024-01-06T10:17:17;3.34;90.47
47861;HTU21D;33620;52.340;5.984;2024-01-06T10:19:46;3.45;91.11
47861;HTU21D;33620;52.340;5.984;2024-01-06T10:22:13;3.54;91.43
47861;HTU21D;33620;52.340;5.984;2024-01-06T10:24:39;3.61;91.45
47861;HTU21D;33620;52.340;5.984;2024-01-06T10:27:05;3.64;91.31
47861;HTU21D;33620;52.340;5.984;2024-01-06T10:29:30;3.63;90.78
47861;HTU21D;33620;52.340;5.984;2024-01-06T10:31:56;3.61;90.51
47861;HTU21D;33620;52.340;5.984;2024-01-06T10:34:24;3.60;90.40
47861;HTU21D;33620;52.340;5.984;2024-01-06T10:36:50;3.52;90.43
47861;HTU21D;33620;52.340;5.984;2024-01-06T10:39:19;3.52;90.58
47861;HTU21D;33620;52.340;5.984;2024-01-06T10:41:46;3.52;90.68
47861;HTU21D;33620;52.340;5.984;2024-01-06T10:44:12;3.55;91.00
47861;HTU21D;33620;52.340;5.984;2024-01-06T10:46:40;3.55;90.68
47861;HTU21D;33620;52.340;5.984;2024-01-06T10:49:06;3.55;90.50
47861;HTU21D;33620;52.340;5.984;2024-01-06T10:51:37;3.53;90.14
47861;HTU21D;33620;52.340;5.984;2024-01-06T10:54:02;3.49;90.32
47861;HTU21D;33620;52.340;5.984;2024-01-06T10:56:29;3.50;90.45
47861;HTU21D;33620;52.340;5.984;2024-01-06T10:58:56;3.55;90.41
47861;HTU21D;33620;52.340;5.984;2024-01-06T11:01:23;3.54;90.39
47861;HTU21D;33620;52.340;5.984;2024-01-06T11:03:52;3.57;89.99
47861;HTU21D;33620;52.340;5.984;2024-01-06T11:06:19;3.46;89.84
47861;HTU21D;33620;52.340;5.984;2024-01-06T11:09:09;3.49;90.09
47861;HTU21D;33620;52.340;5.984;2024-01-06T11:11:36;3.55;90.19
47861;HTU21D;33620;52.340;5.984;2024-01-06T11:14:24;3.52;89.76
47861;HTU21D;33620;52.340;5.984;2024-01-06T11:16:51;3.53;89.92
47861;HTU21D;33620;52.340;5.984;2024-01-06T11:24:56;3.53;90.48
47861;HTU21D;33620;52.340;5.984;2024-01-06T11:27:24;3.55;90.16
47861;HTU21D;33620;52.340;5.984;2024-01-06T11:29:53;3.58;90.28
47861;HTU21D;33620;52.340;5.984;2024-01-06T11:32:30;3.59;89.99
47861;HTU21D;33620;52.340;5.984;2024-01-06T11:35:10;3.60;89.99
47861;HTU21D;33620;52.340;5.984;2024-01-06T11:40:30;3.64;90.04
47861;HTU21D;33620;52.340;5.984;2024-01-06T11:43:10;3.67;90.04
47861;HTU21D;33620;52.340;5.984;2024-01-06T11:45:39;3.69;90.12
47861;HTU21D;33620;52.340;5.984;2024-01-06T11:48:07;3.60;89.53
47861;HTU21D;33620;52.340;5.984;2024-01-06T11:50:35;3.53;90.00
47861;HTU21D;33620;52.340;5.984;2024-01-06T11:53:02;3.54;90.59
47861;HTU21D;33620;52.340;5.984;2024-01-06T11:55:28;3.57;90.76
47861;HTU21D;33620;52.340;5.984;2024-01-06T11:57:55;3.58;90.37
47861;HTU21D;33620;52.340;5.984;2024-01-06T12:00:21;3.60;90.50
47861;HTU21D;33620;52.340;5.984;2024-01-06T12:02:47;3.59;90.17
47861;HTU21D;33620;52.340;5.984;2024-01-06T12:05:16;3.61;90.50
47861;HTU21D;33620;52.340;5.984;2024-01-06T12:07:43;3.60;90.31
47861;HTU21D;33620;52.340;5.984;2024-01-06T12:10:09;3.64;90.47
47861;HTU21D;33620;52.340;5.984;2024-01-06T12:12:36;3.67;90.47
47861;HTU21D;33620;52.340;5.984;2024-01-06T12:15:01;3.69;90.23
47861;HTU21D;33620;52.340;5.984;2024-01-06T12:17:30;3.64;89.73
47861;HTU21D;33620;52.340;5.984;2024-01-06T12:19:56;3.62;89.77
47861;HTU21D;33620;52.340;5.984;2024-01-06T12:22:21;3.60;89.59
47861;HTU21D;33620;52.340;5.984;2024-01-06T12:24:49;3.61;89.35
47861;HTU21D;33620;52.340;5.984;2024-01-06T12:27:17;3.63;89.70
47861;HTU21D;33620;52.340;5.984;2024-01-06T12:29:43;3.63;89.59
47861;HTU21D;33620;52.340;5.984;2024-01-06T12:32:11;3.58;89.28
47861;HTU21D;33620;52.340;5.984;2024-01-06T12:34:38;3.59;89.39
47861;HTU21D;33620;52.340;5.984;2024-01-06T12:37:05;3.57;89.61
47861;HTU21D;33620;52.340;5.984;2024-01-06T12:39:31;3.56;89.39
47861;HTU21D;33620;52.340;5.984;2024-01-06T12:41:57;3.49;89.25
47861;HTU21D;33620;52.340;5.984;2024-01-06T12:44:25;3.55;89.46
47861;HTU21D;33620;52.340;5.984;2024-01-06T12:46:50;3.54;88.89
47861;HTU21D;33620;52.340;5.984;2024-01-06T12:49:15;3.46;89.25
47861;HTU21D;33620;52.340;5.984;2024-01-06T12:51:41;3.45;89.23
47861;HTU21D;33620;52.340;5.984;2024-01-06T12:54:06;3.49;89.41
47861;HTU21D;33620;52.340;5.984;2024-01-06T12:56:32;3.54;89.58
47861;HTU21D;33620;52.340;5.984;2024-01-06T12:58:57;3.59;89.64
47861;HTU21D;33620;52.340;5.984;2024-01-06T13:01:23;3.62;89.23
47861;HTU21D;33620;52.340;5.984;2024-01-06T13:03:48;3.63;89.34
47861;HTU21D;33620;52.340;5.984;2024-01-06T13:06:13;3.57;88.72
47861;HTU21D;33620;52.340;5.984;2024-01-06T13:08:41;3.53;89.21
47861;HTU21D;33620;52.340;5.984;2024-01-06T13:11:07;3.45;88.96
47861;HTU21D;33620;52.340;5.984;2024-01-06T13:13:33;3.49;89.73
47861;HTU21D;33620;52.340;5.984;2024-01-06T13:15:58;3.53;89.64
47861;HTU21D;33620;52.340;5.984;2024-01-06T13:18:23;3.56;89.68
47861;HTU21D;33620;52.340;5.984;2024-01-06T13:20:49;3.44;89.00
47861;HTU21D;33620;52.340;5.984;2024-01-06T13:23:14;3.44;89.54
47861;HTU21D;33620;52.340;5.984;2024-01-06T13:25:40;3.44;89.71
47861;HTU21D;33620;52.340;5.984;2024-01-06T13:28:06;3.44;89.65
47861;HTU21D;33620;52.340;5.984;2024-01-06T13:30:32;3.44;89.90
47861;HTU21D;33620;52.340;5.984;2024-01-06T13:32:58;3.53;90.25
47861;HTU21D;33620;52.340;5.984;2024-01-06T13:35:24;3.60;90.48
47861;HTU21D;33620;52.340;5.984;2024-01-06T13:37:53;3.65;90.31
47861;HTU21D;33620;52.340;5.984;2024-01-06T13:40:19;3.64;89.91
47861;HTU21D;33620;52.340;5.984;2024-01-06T13:42:50;3.57;89.00
47861;HTU21D;33620;52.340;5.984;2024-01-06T13:45:19;3.60;89.79
47861;HTU21D;33620;52.340;5.984;2024-01-06T13:47:44;3.60;89.24
47861;HTU21D;33620;52.340;5.984;2024-01-06T13:50:16;3.58;89.33
47861;HTU21D;33620;52.340;5.984;2024-01-06T13:52:43;3.56;89.14
47861;HTU21D;33620;52.340;5.984;2024-01-06T13:55:08;3.57;89.48
47861;HTU21D;33620;52.340;5.984;2024-01-06T13:57:34;3.54;88.84
47861;HTU21D;33620;52.340;5.984;2024-01-06T14:00:00;3.50;89.06
47861;HTU21D;33620;52.340;5.984;2024-01-06T14:02:26;3.55;89.50
47861;HTU21D;33620;52.340;5.984;2024-01-06T14:04:52;3.56;89.32
47861;HTU21D;33620;52.340;5.984;2024-01-06T14:07:18;3.49;89.37
47861;HTU21D;33620;52.340;5.984;2024-01-06T14:09:45;3.50;89.52
47861;HTU21D;33620;52.340;5.984;2024-01-06T14:12:10;3.49;89.81
47861;HTU21D;33620;52.340;5.984;2024-01-06T14:14:36;3.53;89.98
47861;HTU21D;33620;52.340;5.984;2024-01-06T14:17:02;3.49;89.44
47861;HTU21D;33620;52.340;5.984;2024-01-06T14:19:27;3.55;89.77
47861;HTU21D;33620;52.340;5.984;2024-01-06T14:21:53;3.50;89.56
47861;HTU21D;33620;52.340;5.984;2024-01-06T14:24:18;3.54;89.60
47861;HTU21D;33620;52.340;5.984;2024-01-06T14:26:49;3.59;89.61
47861;HTU21D;33620;52.340;5.984;2024-01-06T14:29:15;3.61;89.47
47861;HTU21D;33620;52.340;5.984;2024-01-06T14:31:41;3.63;89.54
47861;HTU21D;33620;52.340;5.984;2024-01-06T14:34:07;3.69;89.41
47861;HTU21D;33620;52.340;5.984;2024-01-06T14:36:32;3.69;89.19
47861;HTU21D;33620;52.340;5.984;2024-01-06T14:38:57;3.72;88.86
47861;HTU21D;33620;52.340;5.984;2024-01-06T14:41:23;3.73;88.84
47861;HTU21D;33620;52.340;5.984;2024-01-06T14:43:48;3.74;88.89
47861;HTU21D;33620;52.340;5.984;2024-01-06T14:46:14;3.71;88.67
47861;HTU21D;33620;52.340;5.984;2024-01-06T14:48:39;3.70;88.65
47861;HTU21D;33620;52.340;5.984;2024-01-06T14:51:04;3.69;87.96
47861;HTU21D;33620;52.340;5.984;2024-01-06T14:53:30;3.69;88.38
47861;HTU21D;33620;52.340;5.984;2024-01-06T14:55:55;3.69;88.41
47861;HTU21D;33620;52.340;5.984;2024-01-06T14:58:20;3.68;88.49
47861;HTU21D;33620;52.340;5.984;2024-01-06T15:00:46;3.70;88.67
47861;HTU21D;33620;52.340;5.984;2024-01-06T15:03:11;3.70;88.51
47861;HTU21D;33620;52.340;5.984;2024-01-06T15:05:37;3.65;87.85
47861;HTU21D;33620;52.340;5.984;2024-01-06T15:08:02;3.67;88.18
47861;HTU21D;33620;52.340;5.984;2024-01-06T15:10:27;3.65;88.09
47861;HTU21D;33620;52.340;5.984;2024-01-06T15:12:53;3.67;88.48
47861;HTU21D;33620;52.340;5.984;2024-01-06T15:15:18;3.61;87.86
47861;HTU21D;33620;52.340;5.984;2024-01-06T15:17:43;3.60;87.98
47861;HTU21D;33620;52.340;5.984;2024-01-06T15:20:09;3.55;88.28
47861;HTU21D;33620;52.340;5.984;2024-01-06T15:22:35;3.42;87.52
47861;HTU21D;33620;52.340;5.984;2024-01-06T15:25:00;3.38;88.57
47861;HTU21D;33620;52.340;5.984;2024-01-06T15:27:30;3.45;88.85
47861;HTU21D;33620;52.340;5.984;2024-01-06T15:29:56;3.44;88.72